sensor_id;sensor_type;location;lat;lon;timestamp;P1;durP1;ratioP1;P2;durP2;ratioP2
79493;SDS011;68951;53.130;18.104;2023-12-07T00:00:43;39.20;;;15.60;;
79493;SDS011;68951;53.130;18.104;2023-12-07T00:03:29;40.90;;;16.00;;
79493;SDS011;68951;53.130;18.104;2023-12-07T00:05:56;40.50;;;16.30;;
79493;SDS011;68951;53.130;18.104;2023-12-07T00:08:23;42.30;;;15.80;;
79493;SDS011;68951;53.130;18.104;2023-12-07T00:10:50;35.70;;;14.30;;
79493;SDS011;68951;53.130;18.104;2023-12-07T00:13:17;33.20;;;13.60;;
79493;SDS011;68951;53.130;18.104;2023-12-07T00:15:44;39.70;;;15.40;;
79493;SDS011;68951;53.130;18.104;2023-12-07T00:18:10;33.20;;;12.30;;
79493;SDS011;68951;53.130;18.104;2023-12-07T00:20:37;37.20;;;15.30;;
79493;SDS011;68951;53.130;18.104;2023-12-07T00:23:04;38.60;;;15.10;;
79493;SDS011;68951;53.130;18.104;2023-12-07T00:25:31;44.40;;;16.80;;
79493;SDS011;68951;53.130;18.104;2023-12-07T00:27:57;44.30;;;16.20;;
79493;SDS011;68951;53.130;18.104;2023-12-07T00:30:24;42.00;;;16.90;;
79493;SDS011;68951;53.130;18.104;2023-12-07T00:32:51;53.40;;;20.40;;
79493;SDS011;68951;53.130;18.104;2023-12-07T00:35:18;45.60;;;18.40;;
79493;SDS011;68951;53.130;18.104;2023-12-07T00:37:48;46.30;;;18.90;;
79493;SDS011;68951;53.130;18.104;2023-12-07T00:40:15;44.50;;;18.30;;
79493;SDS011;68951;53.130;18.104;2023-12-07T00:42:42;42.00;;;16.80;;
79493;SDS011;68951;53.130;18.104;2023-12-07T00:45:11;42.80;;;17.20;;
79493;SDS011;68951;53.130;18.104;2023-12-07T00:47:39;42.30;;;17.10;;
79493;SDS011;68951;53.130;18.104;2023-12-07T00:50:06;28.50;;;11.30;;
79493;SDS011;68951;53.130;18.104;2023-12-07T00:52:33;31.20;;;11.80;;
79493;SDS011;68951;53.130;18.104;2023-12-07T00:55:00;36.10;;;14.40;;
79493;SDS011;68951;53.130;18.104;2023-12-07T00:57:27;38.60;;;13.60;;
79493;SDS011;68951;53.130;18.104;2023-12-07T00:59:53;33.90;;;14.30;;
79493;SDS011;68951;53.130;18.104;2023-12-07T01:02:20;30.70;;;12.10;;
79493;SDS011;68951;53.130;18.104;2023-12-07T01:04:47;33.00;;;14.00;;
79493;SDS011;68951;53.130;18.104;2023-12-07T01:07:14;32.00;;;12.80;;
79493;SDS011;68951;53.130;18.104;2023-12-07T01:09:40;46.20;;;17.50;;
79493;SDS011;68951;53.130;18.104;2023-12-07T01:12:07;38.90;;;15.80;;
79493;SDS011;68951;53.130;18.104;2023-12-07T01:14:34;40.40;;;16.70;;
79493;SDS011;68951;53.130;18.104;2023-12-07T01:17:00;49.10;;;20.20;;
79493;SDS011;68951;53.130;18.104;2023-12-07T01:19:28;46.80;;;19.90;;
79493;SDS011;68951;53.130;18.104;2023-12-07T01:21:55;47.60;;;18.20;;
79493;SDS011;68951;53.130;18.104;2023-12-07T01:24:22;47.60;;;17.50;;
79493;SDS011;68951;53.130;18.104;2023-12-07T01:26:48;46.50;;;17.40;;
79493;SDS011;68951;53.130;18.104;2023-12-07T01:29:15;40.70;;;16.20;;
79493;SDS011;68951;53.130;18.104;2023-12-07T01:31:42;40.10;;;15.70;;
79493;SDS011;68951;53.130;18.104;2023-12-07T01:34:09;45.90;;;17.20;;
79493;SDS011;68951;53.130;18.104;2023-12-07T01:36:36;34.60;;;13.70;;
79493;SDS011;68951;53.130;18.104;2023-12-07T01:39:02;37.20;;;14.50;;
79493;SDS011;68951;53.130;18.104;2023-12-07T01:41:29;40.10;;;13.80;;
79493;SDS011;68951;53.130;18.104;2023-12-07T01:43:56;29.40;;;11.70;;
79493;SDS011;68951;53.130;18.104;2023-12-07T01:46:23;31.60;;;12.30;;
79493;SDS011;68951;53.130;18.104;2023-12-07T01:48:50;36.00;;;13.80;;
79493;SDS011;68951;53.130;18.104;2023-12-07T01:51:17;33.10;;;12.90;;
79493;SDS011;68951;53.130;18.104;2023-12-07T01:53:46;33.90;;;12.90;;
79493;SDS011;68951;53.130;18.104;2023-12-07T01:56:14;40.60;;;16.40;;
79493;SDS011;68951;53.130;18.104;2023-12-07T01:58:43;39.70;;;17.40;;
79493;SDS011;68951;53.130;18.104;2023-12-07T02:01:10;43.10;;;16.50;;
79493;SDS011;68951;53.130;18.104;2023-12-07T02:03:41;48.00;;;18.10;;
79493;SDS011;68951;53.130;18.104;2023-12-07T02:06:09;46.10;;;17.90;;
79493;SDS011;68951;53.130;18.104;2023-12-07T02:08:36;46.20;;;17.60;;
79493;SDS011;68951;53.130;18.104;2023-12-07T02:11:08;44.70;;;16.30;;
79493;SDS011;68951;53.130;18.104;2023-12-07T02:13:40;43.50;;;16.60;;
79493;SDS011;68951;53.130;18.104;2023-12-07T02:16:15;40.30;;;15.10;;
79493;SDS011;68951;53.130;18.104;2023-12-07T02:19:08;40.50;;;15.40;;
79493;SDS011;68951;53.130;18.104;2023-12-07T02:22:02;33.90;;;13.30;;
79493;SDS011;68951;53.130;18.104;2023-12-07T02:24:37;34.70;;;14.80;;
79493;SDS011;68951;53.130;18.104;2023-12-07T02:27:08;35.00;;;13.80;;
79493;SDS011;68951;53.130;18.104;2023-12-07T02:29:35;35.30;;;12.80;;
79493;SDS011;68951;53.130;18.104;2023-12-07T02:32:02;36.70;;;13.80;;
79493;SDS011;68951;53.130;18.104;2023-12-07T02:34:29;30.40;;;12.50;;
79493;SDS011;68951;53.130;18.104;2023-12-07T02:36:57;29.80;;;12.30;;
79493;SDS011;68951;53.130;18.104;2023-12-07T02:39:25;33.60;;;12.60;;
79493;SDS011;68951;53.130;18.104;2023-12-07T02:41:53;36.50;;;13.90;;
79493;SDS011;68951;53.130;18.104;2023-12-07T02:44:20;40.00;;;15.80;;
79493;SDS011;68951;53.130;18.104;2023-12-07T02:46:47;37.80;;;15.90;;
79493;SDS011;68951;53.130;18.104;2023-12-07T02:49:14;42.50;;;17.60;;
79493;SDS011;68951;53.130;18.104;2023-12-07T02:51:41;43.20;;;17.60;;
79493;SDS011;68951;53.130;18.104;2023-12-07T02:54:08;39.50;;;16.80;;
79493;SDS011;68951;53.130;18.104;2023-12-07T02:56:34;43.70;;;16.40;;
79493;SDS011;68951;53.130;18.104;2023-12-07T02:59:01;40.70;;;16.10;;
79493;SDS011;68951;53.130;18.104;2023-12-07T03:01:28;40.90;;;16.10;;
79493;SDS011;68951;53.130;18.104;2023-12-07T03:03:55;40.00;;;15.30;;
79493;SDS011;68951;53.130;18.104;2023-12-07T03:06:21;35.90;;;15.40;;
79493;SDS011;68951;53.130;18.104;2023-12-07T03:08:48;38.80;;;15.10;;
79493;SDS011;68951;53.130;18.104;2023-12-07T03:11:15;37.90;;;14.20;;
79493;SDS011;68951;53.130;18.104;2023-12-07T03:13:42;35.30;;;14.50;;
79493;SDS011;68951;53.130;18.104;2023-12-07T03:16:08;35.20;;;13.80;;
79493;SDS011;68951;53.130;18.104;2023-12-07T03:18:36;38.50;;;14.70;;
79493;SDS011;68951;53.130;18.104;2023-12-07T03:21:03;39.70;;;15.00;;
79493;SDS011;68951;53.130;18.104;2023-12-07T03:23:30;47.70;;;16.20;;
79493;SDS011;68951;53.130;18.104;2023-12-07T03:25:57;45.90;;;16.80;;
79493;SDS011;68951;53.130;18.104;2023-12-07T03:28:24;49.20;;;18.70;;
79493;SDS011;68951;53.130;18.104;2023-12-07T03:30:50;43.20;;;16.80;;
79493;SDS011;68951;53.130;18.104;2023-12-07T03:33:17;50.00;;;19.70;;
79493;SDS011;68951;53.130;18.104;2023-12-07T03:35:44;47.60;;;18.40;;
79493;SDS011;68951;53.130;18.104;2023-12-07T03:38:11;47.00;;;18.00;;
79493;SDS011;68951;53.130;18.104;2023-12-07T03:40:37;45.30;;;18.30;;
79493;SDS011;68951;53.130;18.104;2023-12-07T03:43:04;48.10;;;17.80;;
79493;SDS011;68951;53.130;18.104;2023-12-07T03:45:31;43.20;;;16.40;;
79493;SDS011;68951;53.130;18.104;2023-12-07T03:47:58;44.20;;;17.00;;
79493;SDS011;68951;53.130;18.104;2023-12-07T03:50:24;43.60;;;15.80;;
79493;SDS011;68951;53.130;18.104;2023-12-07T03:52:51;38.00;;;15.20;;
79493;SDS011;68951;53.130;18.104;2023-12-07T03:55:18;42.00;;;17.10;;
79493;SDS011;68951;53.130;18.104;2023-12-07T03:57:45;37.60;;;14.70;;
79493;SDS011;68951;53.130;18.104;2023-12-07T04:00:12;38.70;;;14.60;;
79493;SDS011;68951;53.130;18.104;2023-12-07T04:02:39;33.00;;;13.40;;
79493;SDS011;68951;53.130;18.104;2023-12-07T04:05:06;39.30;;;14.90;;
79493;SDS011;68951;53.130;18.104;2023-12-07T04:07:33;36.80;;;14.70;;
79493;SDS011;68951;53.130;18.104;2023-12-07T04:10:00;48.40;;;18.40;;
79493;SDS011;68951;53.130;18.104;2023-12-07T04:12:27;46.30;;;20.00;;
79493;SDS011;68951;53.130;18.104;2023-12-07T04:14:54;45.40;;;17.80;;
79493;SDS011;68951;53.130;18.104;2023-12-07T04:17:21;51.20;;;20.10;;
79493;SDS011;68951;53.130;18.104;2023-12-07T04:19:47;44.60;;;19.80;;
79493;SDS011;68951;53.130;18.104;2023-12-07T04:22:14;54.60;;;20.70;;
79493;SDS011;68951;53.130;18.104;2023-12-07T04:24:41;52.00;;;19.90;;
79493;SDS011;68951;53.130;18.104;2023-12-07T04:27:08;50.90;;;20.30;;
79493;SDS011;68951;53.130;18.104;2023-12-07T04:29:34;41.80;;;17.30;;
79493;SDS011;68951;53.130;18.104;2023-12-07T04:32:02;49.80;;;17.00;;
79493;SDS011;68951;53.130;18.104;2023-12-07T04:34:29;42.40;;;16.80;;
79493;SDS011;68951;53.130;18.104;2023-12-07T04:36:56;46.60;;;16.70;;
79493;SDS011;68951;53.130;18.104;2023-12-07T04:39:23;41.10;;;15.30;;
79493;SDS011;68951;53.130;18.104;2023-12-07T04:41:49;33.50;;;14.30;;
79493;SDS011;68951;53.130;18.104;2023-12-07T04:44:17;36.10;;;14.60;;
79493;SDS011;68951;53.130;18.104;2023-12-07T04:46:44;39.00;;;14.90;;
79493;SDS011;68951;53.130;18.104;2023-12-07T04:49:11;45.50;;;18.60;;
79493;SDS011;68951;53.130;18.104;2023-12-07T04:51:38;55.30;;;23.00;;
79493;SDS011;68951;53.130;18.104;2023-12-07T04:54:04;59.50;;;25.30;;
79493;SDS011;68951;53.130;18.104;2023-12-07T04:56:31;74.30;;;31.20;;
79493;SDS011;68951;53.130;18.104;2023-12-07T04:58:58;73.60;;;30.70;;
79493;SDS011;68951;53.130;18.104;2023-12-07T05:01:25;63.20;;;28.20;;
79493;SDS011;68951;53.130;18.104;2023-12-07T05:03:52;57.80;;;23.10;;
79493;SDS011;68951;53.130;18.104;2023-12-07T05:06:18;55.40;;;21.00;;
79493;SDS011;68951;53.130;18.104;2023-12-07T05:08:45;44.30;;;17.30;;
79493;SDS011;68951;53.130;18.104;2023-12-07T05:11:12;41.00;;;16.50;;
79493;SDS011;68951;53.130;18.104;2023-12-07T05:13:39;45.20;;;16.50;;
79493;SDS011;68951;53.130;18.104;2023-12-07T05:16:06;47.80;;;19.00;;
79493;SDS011;68951;53.130;18.104;2023-12-07T05:18:33;50.60;;;19.00;;
79493;SDS011;68951;53.130;18.104;2023-12-07T05:20:59;40.10;;;16.50;;
79493;SDS011;68951;53.130;18.104;2023-12-07T05:23:26;48.40;;;16.90;;
79493;SDS011;68951;53.130;18.104;2023-12-07T05:25:53;46.70;;;17.10;;
79493;SDS011;68951;53.130;18.104;2023-12-07T05:28:20;50.30;;;19.00;;
79493;SDS011;68951;53.130;18.104;2023-12-07T05:30:47;45.40;;;18.40;;
79493;SDS011;68951;53.130;18.104;2023-12-07T05:33:14;44.40;;;17.30;;
79493;SDS011;68951;53.130;18.104;2023-12-07T05:35:41;43.10;;;17.10;;
79493;SDS011;68951;53.130;18.104;2023-12-07T05:38:08;50.20;;;18.80;;
79493;SDS011;68951;53.130;18.104;2023-12-07T05:40:35;45.70;;;20.00;;
79493;SDS011;68951;53.130;18.104;2023-12-07T05:43:02;42.90;;;17.90;;
79493;SDS011;68951;53.130;18.104;2023-12-07T05:45:29;45.60;;;16.40;;
79493;SDS011;68951;53.130;18.104;2023-12-07T05:47:56;40.90;;;15.70;;
79493;SDS011;68951;53.130;18.104;2023-12-07T05:50:23;41.20;;;16.20;;
79493;SDS011;68951;53.130;18.104;2023-12-07T05:52:50;38.80;;;15.70;;
79493;SDS011;68951;53.130;18.104;2023-12-07T05:55:17;36.70;;;14.10;;
79493;SDS011;68951;53.130;18.104;2023-12-07T05:57:47;32.70;;;12.80;;
79493;SDS011;68951;53.130;18.104;2023-12-07T06:00:14;35.80;;;13.20;;
79493;SDS011;68951;53.130;18.104;2023-12-07T06:02:42;43.10;;;17.20;;
79493;SDS011;68951;53.130;18.104;2023-12-07T06:05:09;49.20;;;18.30;;
79493;SDS011;68951;53.130;18.104;2023-12-07T06:07:37;42.20;;;17.40;;
79493;SDS011;68951;53.130;18.104;2023-12-07T06:10:04;49.30;;;19.10;;
79493;SDS011;68951;53.130;18.104;2023-12-07T06:12:32;50.90;;;19.60;;
79493;SDS011;68951;53.130;18.104;2023-12-07T06:14:58;48.50;;;18.30;;
79493;SDS011;68951;53.130;18.104;2023-12-07T06:17:26;48.30;;;18.60;;
79493;SDS011;68951;53.130;18.104;2023-12-07T06:19:53;46.10;;;18.00;;
79493;SDS011;68951;53.130;18.104;2023-12-07T06:22:20;46.90;;;18.80;;
79493;SDS011;68951;53.130;18.104;2023-12-07T06:24:47;40.90;;;16.70;;
79493;SDS011;68951;53.130;18.104;2023-12-07T06:27:13;38.20;;;16.10;;
79493;SDS011;68951;53.130;18.104;2023-12-07T06:29:40;39.60;;;16.30;;
79493;SDS011;68951;53.130;18.104;2023-12-07T06:32:07;36.10;;;14.00;;
79493;SDS011;68951;53.130;18.104;2023-12-07T06:34:39;35.30;;;14.60;;
79493;SDS011;68951;53.130;18.104;2023-12-07T06:37:09;41.50;;;15.20;;
79493;SDS011;68951;53.130;18.104;2023-12-07T06:39:37;44.10;;;18.20;;
79493;SDS011;68951;53.130;18.104;2023-12-07T06:42:03;42.00;;;17.80;;
79493;SDS011;68951;53.130;18.104;2023-12-07T06:44:30;43.80;;;18.00;;
79493;SDS011;68951;53.130;18.104;2023-12-07T06:46:57;47.30;;;19.40;;
79493;SDS011;68951;53.130;18.104;2023-12-07T06:49:24;50.90;;;20.10;;
79493;SDS011;68951;53.130;18.104;2023-12-07T06:51:51;47.50;;;18.20;;
79493;SDS011;68951;53.130;18.104;2023-12-07T06:54:17;43.30;;;16.80;;
79493;SDS011;68951;53.130;18.104;2023-12-07T06:56:44;42.60;;;17.20;;
79493;SDS011;68951;53.130;18.104;2023-12-07T06:59:12;43.00;;;16.70;;
79493;SDS011;68951;53.130;18.104;2023-12-07T07:01:39;42.60;;;15.70;;
79493;SDS011;68951;53.130;18.104;2023-12-07T07:04:06;40.70;;;15.10;;
79493;SDS011;68951;53.130;18.104;2023-12-07T07:06:35;40.90;;;15.60;;
79493;SDS011;68951;53.130;18.104;2023-12-07T07:09:02;34.30;;;14.60;;
79493;SDS011;68951;53.130;18.104;2023-12-07T07:11:31;33.80;;;14.30;;
79493;SDS011;68951;53.130;18.104;2023-12-07T07:13:58;36.20;;;14.60;;
79493;SDS011;68951;53.130;18.104;2023-12-07T07:16:25;40.40;;;16.00;;
79493;SDS011;68951;53.130;18.104;2023-12-07T07:18:52;41.80;;;18.70;;
79493;SDS011;68951;53.130;18.104;2023-12-07T07:21:18;38.30;;;17.40;;
79493;SDS011;68951;53.130;18.104;2023-12-07T07:23:48;51.00;;;19.70;;
79493;SDS011;68951;53.130;18.104;2023-12-07T07:26:16;47.20;;;19.00;;
79493;SDS011;68951;53.130;18.104;2023-12-07T07:28:43;46.80;;;18.80;;
79493;SDS011;68951;53.130;18.104;2023-12-07T07:31:10;47.00;;;19.00;;
79493;SDS011;68951;53.130;18.104;2023-12-07T07:33:37;46.00;;;18.90;;
79493;SDS011;68951;53.130;18.104;2023-12-07T07:36:04;40.90;;;16.70;;
79493;SDS011;68951;53.130;18.104;2023-12-07T07:38:31;38.80;;;15.90;;
79493;SDS011;68951;53.130;18.104;2023-12-07T07:40:58;36.20;;;13.60;;
79493;SDS011;68951;53.130;18.104;2023-12-07T07:43:24;35.50;;;14.70;;
79493;SDS011;68951;53.130;18.104;2023-12-07T07:45:51;37.20;;;14.40;;
79493;SDS011;68951;53.130;18.104;2023-12-07T07:48:18;32.50;;;13.80;;
79493;SDS011;68951;53.130;18.104;2023-12-07T07:50:45;33.10;;;14.00;;
79493;SDS011;68951;53.130;18.104;2023-12-07T07:53:12;30.80;;;13.10;;
79493;SDS011;68951;53.130;18.104;2023-12-07T07:55:39;28.50;;;14.40;;
79493;SDS011;68951;53.130;18.104;2023-12-07T07:58:05;30.20;;;13.20;;
79493;SDS011;68951;53.130;18.104;2023-12-07T08:00:33;39.90;;;18.50;;
79493;SDS011;68951;53.130;18.104;2023-12-07T08:03:00;39.70;;;17.60;;
79493;SDS011;68951;53.130;18.104;2023-12-07T08:05:27;45.40;;;18.70;;
79493;SDS011;68951;53.130;18.104;2023-12-07T08:07:54;44.90;;;17.90;;
79493;SDS011;68951;53.130;18.104;2023-12-07T08:10:21;42.80;;;17.80;;
79493;SDS011;68951;53.130;18.104;2023-12-07T08:12:48;39.20;;;17.30;;
79493;SDS011;68951;53.130;18.104;2023-12-07T08:15:15;39.00;;;15.50;;
79493;SDS011;68951;53.130;18.104;2023-12-07T08:17:42;38.40;;;16.10;;
79493;SDS011;68951;53.130;18.104;2023-12-07T08:20:09;38.10;;;16.00;;
79493;SDS011;68951;53.130;18.104;2023-12-07T08:22:37;35.30;;;15.00;;
79493;SDS011;68951;53.130;18.104;2023-12-07T08:25:05;39.10;;;15.50;;
79493;SDS011;68951;53.130;18.104;2023-12-07T08:27:32;32.80;;;13.80;;
79493;SDS011;68951;53.130;18.104;2023-12-07T08:30:00;31.60;;;13.20;;
79493;SDS011;68951;53.130;18.104;2023-12-07T08:32:27;33.10;;;14.80;;
79493;SDS011;68951;53.130;18.104;2023-12-07T08:34:55;34.20;;;13.60;;
79493;SDS011;68951;53.130;18.104;2023-12-07T08:37:22;32.10;;;13.40;;
79493;SDS011;68951;53.130;18.104;2023-12-07T08:39:49;32.50;;;13.50;;
79493;SDS011;68951;53.130;18.104;2023-12-07T08:42:15;32.90;;;13.00;;
79493;SDS011;68951;53.130;18.104;2023-12-07T08:44:43;27.80;;;12.20;;
79493;SDS011;68951;53.130;18.104;2023-12-07T08:47:10;28.10;;;11.60;;
79493;SDS011;68951;53.130;18.104;2023-12-07T08:49:37;28.60;;;12.10;;
79493;SDS011;68951;53.130;18.104;2023-12-07T08:52:04;40.20;;;16.40;;
79493;SDS011;68951;53.130;18.104;2023-12-07T08:54:30;40.50;;;17.10;;
79493;SDS011;68951;53.130;18.104;2023-12-07T08:56:57;39.20;;;16.90;;
79493;SDS011;68951;53.130;18.104;2023-12-07T08:59:24;39.50;;;15.90;;
79493;SDS011;68951;53.130;18.104;2023-12-07T09:01:51;38.90;;;15.80;;
79493;SDS011;68951;53.130;18.104;2023-12-07T09:04:18;34.70;;;15.10;;
79493;SDS011;68951;53.130;18.104;2023-12-07T09:06:44;40.10;;;15.60;;
79493;SDS011;68951;53.130;18.104;2023-12-07T09:09:11;39.60;;;16.20;;
79493;SDS011;68951;53.130;18.104;2023-12-07T09:11:38;34.80;;;14.20;;
79493;SDS011;68951;53.130;18.104;2023-12-07T09:14:05;35.70;;;15.20;;
79493;SDS011;68951;53.130;18.104;2023-12-07T09:16:32;37.80;;;15.10;;
79493;SDS011;68951;53.130;18.104;2023-12-07T09:18:59;33.60;;;14.80;;
79493;SDS011;68951;53.130;18.104;2023-12-07T09:21:25;32.90;;;14.00;;
79493;SDS011;68951;53.130;18.104;2023-12-07T09:23:52;30.90;;;13.50;;
79493;SDS011;68951;53.130;18.104;2023-12-07T09:26:19;32.40;;;13.30;;
79493;SDS011;68951;53.130;18.104;2023-12-07T09:28:46;32.90;;;13.50;;
79493;SDS011;68951;53.130;18.104;2023-12-07T09:31:13;32.60;;;13.60;;
79493;SDS011;68951;53.130;18.104;2023-12-07T09:33:40;31.70;;;13.00;;
79493;SDS011;68951;53.130;18.104;2023-12-07T09:36:07;32.60;;;12.90;;
79493;SDS011;68951;53.130;18.104;2023-12-07T09:38:37;30.20;;;12.50;;
79493;SDS011;68951;53.130;18.104;2023-12-07T09:41:04;36.40;;;15.80;;
79493;SDS011;68951;53.130;18.104;2023-12-07T09:43:31;40.30;;;17.70;;
79493;SDS011;68951;53.130;18.104;2023-12-07T09:45:58;41.30;;;16.90;;
79493;SDS011;68951;53.130;18.104;2023-12-07T09:48:25;43.30;;;18.80;;
79493;SDS011;68951;53.130;18.104;2023-12-07T09:50:53;41.80;;;18.40;;
79493;SDS011;68951;53.130;18.104;2023-12-07T09:53:22;38.50;;;17.50;;
79493;SDS011;68951;53.130;18.104;2023-12-07T09:55:49;39.30;;;16.90;;
79493;SDS011;68951;53.130;18.104;2023-12-07T09:58:16;41.00;;;16.50;;
79493;SDS011;68951;53.130;18.104;2023-12-07T10:00:42;38.70;;;15.60;;
79493;SDS011;68951;53.130;18.104;2023-12-07T10:03:20;34.00;;;15.50;;
79493;SDS011;68951;53.130;18.104;2023-12-07T10:05:55;35.20;;;14.10;;
79493;SDS011;68951;53.130;18.104;2023-12-07T10:08:32;31.80;;;14.20;;
79493;SDS011;68951;53.130;18.104;2023-12-07T10:11:05;34.50;;;14.00;;
79493;SDS011;68951;53.130;18.104;2023-12-07T10:13:35;34.60;;;15.10;;
79493;SDS011;68951;53.130;18.104;2023-12-07T10:18:38;29.70;;;13.10;;
79493;SDS011;68951;53.130;18.104;2023-12-07T10:21:07;32.50;;;13.30;;
79493;SDS011;68951;53.130;18.104;2023-12-07T10:23:41;30.10;;;13.10;;
79493;SDS011;68951;53.130;18.104;2023-12-07T10:26:10;31.20;;;12.80;;
79493;SDS011;68951;53.130;18.104;2023-12-07T10:28:37;28.20;;;12.30;;
79493;SDS011;68951;53.130;18.104;2023-12-07T10:31:09;34.70;;;15.70;;
79493;SDS011;68951;53.130;18.104;2023-12-07T10:33:36;40.30;;;17.60;;
79493;SDS011;68951;53.130;18.104;2023-12-07T10:36:03;40.90;;;18.00;;
79493;SDS011;68951;53.130;18.104;2023-12-07T10:38:31;42.10;;;18.80;;
79493;SDS011;68951;53.130;18.104;2023-12-07T10:41:05;42.00;;;18.50;;
79493;SDS011;68951;53.130;18.104;2023-12-07T10:43:37;41.50;;;17.70;;
79493;SDS011;68951;53.130;18.104;2023-12-07T10:46:09;40.10;;;17.70;;
79493;SDS011;68951;53.130;18.104;2023-12-07T10:48:36;40.00;;;16.40;;
79493;SDS011;68951;53.130;18.104;2023-12-07T10:51:06;39.50;;;17.90;;
79493;SDS011;68951;53.130;18.104;2023-12-07T10:53:40;33.40;;;13.40;;
79493;SDS011;68951;53.130;18.104;2023-12-07T10:56:11;38.10;;;15.80;;
79493;SDS011;68951;53.130;18.104;2023-12-07T10:58:43;34.50;;;14.50;;
79493;SDS011;68951;53.130;18.104;2023-12-07T11:01:11;35.50;;;15.90;;
79493;SDS011;68951;53.130;18.104;2023-12-07T11:03:41;30.40;;;13.60;;
79493;SDS011;68951;53.130;18.104;2023-12-07T11:06:10;28.50;;;13.30;;
79493;SDS011;68951;53.130;18.104;2023-12-07T11:08:51;30.70;;;14.00;;
79493;SDS011;68951;53.130;18.104;2023-12-07T11:16:35;29.50;;;12.70;;
79493;SDS011;68951;53.130;18.104;2023-12-07T11:22:07;28.50;;;12.70;;
79493;SDS011;68951;53.130;18.104;2023-12-07T11:24:36;31.00;;;12.90;;
79493;SDS011;68951;53.130;18.104;2023-12-07T11:27:04;32.00;;;13.10;;
79493;SDS011;68951;53.130;18.104;2023-12-07T11:29:31;33.80;;;14.10;;
79493;SDS011;68951;53.130;18.104;2023-12-07T11:32:02;35.00;;;15.60;;
79493;SDS011;68951;53.130;18.104;2023-12-07T11:34:35;42.50;;;17.70;;
79493;SDS011;68951;53.130;18.104;2023-12-07T11:37:03;42.00;;;18.00;;
79493;SDS011;68951;53.130;18.104;2023-12-07T11:39:35;44.10;;;19.30;;
79493;SDS011;68951;53.130;18.104;2023-12-07T11:42:15;45.60;;;18.90;;
79493;SDS011;68951;53.130;18.104;2023-12-07T11:44:47;43.50;;;18.70;;
79493;SDS011;68951;53.130;18.104;2023-12-07T11:47:20;42.80;;;19.50;;
79493;SDS011;68951;53.130;18.104;2023-12-07T11:49:47;41.40;;;17.10;;
79493;SDS011;68951;53.130;18.104;2023-12-07T11:52:20;41.20;;;17.40;;
79493;SDS011;68951;53.130;18.104;2023-12-07T11:54:49;38.00;;;17.30;;
79493;SDS011;68951;53.130;18.104;2023-12-07T11:57:17;38.00;;;16.30;;
79493;SDS011;68951;53.130;18.104;2023-12-07T11:59:45;38.30;;;16.60;;
79493;SDS011;68951;53.130;18.104;2023-12-07T12:02:12;38.10;;;15.80;;
79493;SDS011;68951;53.130;18.104;2023-12-07T12:04:42;36.50;;;15.50;;
79493;SDS011;68951;53.130;18.104;2023-12-07T12:07:09;38.20;;;14.70;;
79493;SDS011;68951;53.130;18.104;2023-12-07T12:09:36;34.40;;;14.00;;
79493;SDS011;68951;53.130;18.104;2023-12-07T12:12:03;34.50;;;15.10;;
79493;SDS011;68951;53.130;18.104;2023-12-07T12:14:31;38.00;;;14.80;;
79493;SDS011;68951;53.130;18.104;2023-12-07T12:16:57;34.60;;;14.20;;
79493;SDS011;68951;53.130;18.104;2023-12-07T12:19:24;32.90;;;13.60;;
79493;SDS011;68951;53.130;18.104;2023-12-07T12:21:51;35.80;;;14.70;;
79493;SDS011;68951;53.130;18.104;2023-12-07T12:24:18;34.20;;;13.60;;
79493;SDS011;68951;53.130;18.104;2023-12-07T12:26:45;30.10;;;13.40;;
79493;SDS011;68951;53.130;18.104;2023-12-07T12:29:14;33.80;;;14.50;;
79493;SDS011;68951;53.130;18.104;2023-12-07T12:31:42;30.90;;;13.00;;
79493;SDS011;68951;53.130;18.104;2023-12-07T12:34:10;35.80;;;15.40;;
79493;SDS011;68951;53.130;18.104;2023-12-07T12:36:39;35.10;;;15.40;;
79493;SDS011;68951;53.130;18.104;2023-12-07T12:39:06;41.90;;;16.90;;
79493;SDS011;68951;53.130;18.104;2023-12-07T12:41:34;43.70;;;16.20;;
79493;SDS011;68951;53.130;18.104;2023-12-07T12:44:01;42.60;;;18.20;;
79493;SDS011;68951;53.130;18.104;2023-12-07T12:46:28;43.50;;;18.00;;
79493;SDS011;68951;53.130;18.104;2023-12-07T12:48:57;40.90;;;17.20;;
79493;SDS011;68951;53.130;18.104;2023-12-07T12:51:27;46.60;;;18.50;;
79493;SDS011;68951;53.130;18.104;2023-12-07T12:53:56;43.10;;;18.50;;
79493;SDS011;68951;53.130;18.104;2023-12-07T12:56:23;42.90;;;18.70;;
79493;SDS011;68951;53.130;18.104;2023-12-07T12:58:51;43.60;;;17.40;;
79493;SDS011;68951;53.130;18.104;2023-12-07T13:01:19;36.40;;;15.80;;
79493;SDS011;68951;53.130;18.104;2023-12-07T13:03:47;28.00;;;10.50;;
79493;SDS011;68951;53.130;18.104;2023-12-07T13:06:15;32.30;;;12.30;;
79493;SDS011;68951;53.130;18.104;2023-12-07T13:08:47;40.20;;;15.40;;
79493;SDS011;68951;53.130;18.104;2023-12-07T13:11:18;41.30;;;16.10;;
79493;SDS011;68951;53.130;18.104;2023-12-07T13:13:46;37.50;;;14.60;;
79493;SDS011;68951;53.130;18.104;2023-12-07T13:16:13;37.30;;;15.50;;
79493;SDS011;68951;53.130;18.104;2023-12-07T13:18:41;35.70;;;15.60;;
79493;SDS011;68951;53.130;18.104;2023-12-07T13:21:08;35.40;;;13.80;;
79493;SDS011;68951;53.130;18.104;2023-12-07T13:23:38;30.50;;;13.20;;
79493;SDS011;68951;53.130;18.104;2023-12-07T13:26:05;34.50;;;13.90;;
79493;SDS011;68951;53.130;18.104;2023-12-07T13:28:33;29.80;;;12.30;;
79493;SDS011;68951;53.130;18.104;2023-12-07T13:31:00;30.70;;;13.30;;
79493;SDS011;68951;53.130;18.104;2023-12-07T13:33:26;34.40;;;13.50;;
79493;SDS011;68951;53.130;18.104;2023-12-07T13:35:53;41.30;;;16.10;;
79493;SDS011;68951;53.130;18.104;2023-12-07T13:38:22;46.80;;;18.50;;
79493;SDS011;68951;53.130;18.104;2023-12-07T13:40:49;42.70;;;16.70;;
79493;SDS011;68951;53.130;18.104;2023-12-07T13:43:16;43.30;;;18.40;;
79493;SDS011;68951;53.130;18.104;2023-12-07T13:45:43;42.90;;;18.10;;
79493;SDS011;68951;53.130;18.104;2023-12-07T13:48:10;41.90;;;18.30;;
79493;SDS011;68951;53.130;18.104;2023-12-07T13:50:36;42.30;;;18.40;;
79493;SDS011;68951;53.130;18.104;2023-12-07T13:53:03;40.90;;;17.60;;
79493;SDS011;68951;53.130;18.104;2023-12-07T13:55:30;42.10;;;17.70;;
79493;SDS011;68951;53.130;18.104;2023-12-07T13:57:57;40.50;;;16.70;;
79493;SDS011;68951;53.130;18.104;2023-12-07T14:00:25;37.60;;;15.90;;
79493;SDS011;68951;53.130;18.104;2023-12-07T14:02:52;32.50;;;15.90;;
79493;SDS011;68951;53.130;18.104;2023-12-07T14:05:19;32.40;;;13.80;;
79493;SDS011;68951;53.130;18.104;2023-12-07T14:07:46;31.90;;;13.70;;
79493;SDS011;68951;53.130;18.104;2023-12-07T14:10:13;33.50;;;13.90;;
79493;SDS011;68951;53.130;18.104;2023-12-07T14:12:39;34.10;;;14.60;;
79493;SDS011;68951;53.130;18.104;2023-12-07T14:15:07;33.50;;;14.80;;
79493;SDS011;68951;53.130;18.104;2023-12-07T14:17:34;30.30;;;12.60;;
79493;SDS011;68951;53.130;18.104;2023-12-07T14:20:08;32.00;;;13.40;;
79493;SDS011;68951;53.130;18.104;2023-12-07T14:22:35;35.40;;;14.00;;